Time;durP1;ratioP1;P1;durP2;ratioP2;P2;SDS_P1;SDS_P2;PMS_P1;PMS_P2;Temp;Humidity;BMP_temperature;BMP_pressure;BME280_temperature;BME280_humidity;BME280_pressure;Samples;Min_cycle;Max_cycle;Signal;HPM_P1;HPM_P2
2023/01/23 00:01:09;;;;;;;;;39.75;33.00;;;;;3.64;62.96;101785.19;5017503;28;45473;-69
2023/01/23 00:03:35;;;;;;;;;30.75;29.50;;;;;3.52;62.94;101776.47;5016666;28;46134;-69
2023/01/23 00:06:05;;;;;;;;;33.00;29.50;;;;;3.48;62.92;101766.69;5016607;28;45506;-69
2023/01/23 00:08:31;;;;;;;;;35.00;30.75;;;;;3.55;63.31;101771.56;5016720;28;45407;-68
2023/01/23 00:10:57;;;;;;;;;31.25;29.25;;;;;3.19;63.20;101726.56;5032849;28;46070;-69
2023/01/23 00:13:23;;;;;;;;;32.50;28.25;;;;;3.41;63.73;101773.06;5017015;28;45334;-69
2023/01/23 00:15:49;;;;;;;;;36.25;31.50;;;;;3.25;63.85;101745.13;4996416;28;45433;-68
2023/01/23 00:18:15;;;;;;;;;32.50;26.25;;;;;3.39;63.23;101774.63;5013076;28;45626;-69
2023/01/23 00:20:43;;;;;;;;;39.25;33.50;;;;;3.37;63.68;101773.59;5016818;28;45461;-68
2023/01/23 00:23:10;;;;;;;;;35.00;31.50;;;;;3.32;63.61;101773.25;5017032;28;45415;-68
2023/01/23 00:25:39;;;;;;;;;33.50;30.25;;;;;3.30;63.97;101771.31;5016757;28;45326;-68
2023/01/23 00:28:04;;;;;;;;;29.50;28.00;;;;;3.26;64.14;101772.72;5017290;28;45410;-68
2023/01/23 00:30:30;;;;;;;;;35.25;29.25;;;;;3.17;64.03;101765.19;5017288;28;45401;-68
2023/01/23 00:32:55;;;;;;;;;42.00;34.00;;;;;3.25;63.85;101770.94;5016349;28;45363;-68
2023/01/23 00:35:21;;;;;;;;;37.00;28.00;;;;;3.21;62.75;101771.50;5016259;28;45514;-69
2023/01/23 00:37:47;;;;;;;;;39.00;36.25;;;;;2.99;63.41;101774.03;5016981;28;45573;-69
2023/01/23 00:40:13;;;;;;;;;32.75;30.50;;;;;2.84;63.31;101773.69;5002817;28;45472;-69
2023/01/23 00:42:38;;;;;;;;;32.50;30.25;;;;;2.76;64.06;101775.66;5016038;28;45340;-69
2023/01/23 00:45:05;;;;;;;;;41.75;37.00;;;;;2.70;63.79;101767.44;5016720;28;45519;-69
2023/01/23 00:47:30;;;;;;;;;42.25;37.75;;;;;2.39;64.26;101720.19;5016902;28;45307;-69
2023/01/23 00:49:57;;;;;;;;;34.25;30.75;;;;;2.57;64.27;101762.06;5017236;28;45376;-69
2023/01/23 00:52:26;;;;;;;;;44.00;35.75;;;;;2.59;64.34;101779.47;5015732;28;45402;-69
2023/01/23 00:54:51;;;;;;;;;42.75;37.25;;;;;2.39;64.24;101746.00;5016970;28;45490;-69
2023/01/23 00:57:17;;;;;;;;;45.25;37.50;;;;;2.44;64.54;101773.03;5016795;28;45486;-69
2023/01/23 00:59:42;;;;;;;;;44.75;36.75;;;;;2.41;65.40;101780.53;5015661;28;45568;-69
2023/01/23 01:02:08;;;;;;;;;38.75;36.00;;;;;2.23;65.83;101766.09;5009359;28;46219;-69
2023/01/23 01:04:36;;;;;;;;;37.00;33.00;;;;;2.04;65.30;101733.66;5016417;28;45415;-68
2023/01/23 01:07:02;;;;;;;;;45.00;40.00;;;;;2.30;65.79;101787.38;5015289;28;45372;-69
2023/01/23 01:09:27;;;;;;;;;40.25;36.00;;;;;2.22;65.94;101772.06;5016393;28;45541;-69
2023/01/23 01:11:53;;;;;;;;;35.50;30.25;;;;;1.89;66.04;101723.00;5016120;28;46076;-69
2023/01/23 01:14:19;;;;;;;;;44.25;38.75;;;;;2.27;66.07;101781.06;5016008;28;45498;-69
2023/01/23 01:16:45;;;;;;;;;42.75;35.75;;;;;2.14;65.67;101749.09;5016047;28;45386;-68
2023/01/23 01:19:15;;;;;;;;;39.00;32.25;;;;;2.26;66.15;101766.38;5016831;28;45376;-68
2023/01/23 01:21:41;;;;;;;;;43.50;36.00;;;;;2.33;65.45;101779.00;5015600;28;45392;-68
2023/01/23 01:24:10;;;;;;;;;36.00;31.00;;;;;2.31;65.69;101767.69;5015890;28;45561;-68
2023/01/23 01:26:36;;;;;;;;;35.50;32.25;;;;;2.04;65.15;101756.84;5015639;28;45450;-68
2023/01/23 01:29:02;;;;;;;;;40.25;34.25;;;;;2.04;65.44;101780.06;5016695;28;45598;-68
2023/01/23 01:31:27;;;;;;;;;35.50;32.00;;;;;1.84;65.92;101755.19;5014975;28;45187;-68
2023/01/23 01:33:53;;;;;;;;;35.00;31.00;;;;;1.77;66.39;101771.81;5016094;28;45259;-68
2023/01/23 01:36:21;;;;;;;;;36.75;28.75;;;;;1.76;65.79;101766.53;5015796;28;45368;-68
2023/01/23 01:38:47;;;;;;;;;50.25;36.25;;;;;1.73;66.66;101764.59;5016177;28;45300;-69
2023/01/23 01:41:14;;;;;;;;;31.50;26.75;;;;;1.79;66.38;101775.41;5031419;28;46887;-68
2023/01/23 01:43:40;;;;;;;;;40.25;33.50;;;;;1.76;66.17;101779.41;5016266;28;45304;-68
2023/01/23 01:46:15;;;;;;;;;39.00;34.75;;;;;1.75;66.60;101781.09;4997917;28;45352;-69
2023/01/23 01:48:59;;;;;;;;;43.00;38.00;;;;;1.79;66.74;101784.78;5010328;28;45456;-68
2023/01/23 01:51:54;;;;;;;;;35.25;27.75;;;;;1.81;66.76;101778.13;5001633;28;45512;-69
2023/01/23 01:54:31;;;;;;;;;43.00;39.00;;;;;1.81;66.59;101787.50;4999773;28;45524;-69
2023/01/23 01:57:17;;;;;;;;;40.25;34.25;;;;;1.81;66.79;101787.50;5015160;28;45474;-68
2023/01/23 01:59:52;;;;;;;;;41.75;40.00;;;;;1.77;66.42;101787.25;5016441;28;45309;-69
2023/01/23 02:02:26;;;;;;;;;46.50;42.25;;;;;1.82;66.94;101799.63;5015788;28;46307;-69
2023/01/23 02:05:00;;;;;;;;;43.25;39.50;;;;;1.79;67.25;101792.53;5015173;28;45282;-69
2023/01/23 02:07:50;;;;;;;;;61.50;42.75;;;;;1.60;67.46;101764.31;5015631;28;45428;-69
2023/01/23 02:10:16;;;;;;;;;42.75;38.00;;;;;1.61;67.67;101753.22;5003706;28;45779;-69
2023/01/23 02:12:49;;;;;;;;;43.25;34.25;;;;;1.85;66.99;101787.00;5011590;28;45444;-69
2023/01/23 02:15:16;;;;;;;;;40.75;28.00;;;;;1.87;67.40;101788.03;5000367;28;45423;-68
2023/01/23 02:17:43;;;;;;;;;40.25;37.25;;;;;1.89;67.40;101779.69;5016007;28;45550;-69
2023/01/23 02:20:23;;;;;;;;;44.50;40.00;;;;;2.00;67.31;101783.16;5015900;28;45562;-69
2023/01/23 02:23:06;;;;;;;;;39.75;35.25;;;;;2.11;66.66;101779.81;5014974;28;45473;-69
2023/01/23 02:25:43;;;;;;;;;40.75;35.50;;;;;2.16;66.31;101788.81;5015539;28;45452;-69
2023/01/23 02:28:14;;;;;;;;;47.00;39.25;;;;;2.15;66.54;101787.00;5014898;28;45431;-69
2023/01/23 02:30:42;;;;;;;;;43.75;38.75;;;;;2.22;66.45;101792.69;5013680;28;45439;-69
2023/01/23 02:33:30;;;;;;;;;51.00;36.00;;;;;2.26;66.82;101793.06;5014785;28;45362;-69
2023/01/23 02:36:00;;;;;;;;;42.50;35.00;;;;;2.18;67.15;101761.47;5012113;28;45357;-69
2023/01/23 02:38:32;;;;;;;;;39.25;34.50;;;;;2.34;67.25;101788.53;5014209;28;45598;-69
2023/01/23 02:41:02;;;;;;;;;40.00;32.75;;;;;2.35;67.34;101783.50;5012581;28;45525;-69
2023/01/23 02:43:34;;;;;;;;;37.25;31.00;;;;;2.42;66.94;101777.16;5017187;28;45374;-68
2023/01/23 02:46:08;;;;;;;;;37.25;32.00;;;;;2.45;67.09;101769.69;5014984;28;45594;-68
2023/01/23 02:48:35;;;;;;;;;46.25;39.75;;;;;2.43;67.34;101765.16;5017931;28;45467;-68
2023/01/23 02:51:01;;;;;;;;;42.25;31.75;;;;;2.46;67.42;101768.91;5018110;28;45533;-68
2023/01/23 02:53:26;;;;;;;;;47.75;38.25;;;;;2.48;67.30;101771.63;5017854;28;46108;-67
2023/01/23 02:55:52;;;;;;;;;48.50;38.50;;;;;2.52;67.27;101765.94;5017114;28;46714;-68
2023/01/23 03:01:03;;;;;;;;;48.00;40.75;;;;;2.55;66.45;101763.63;5016252;28;45378;-69
2023/01/23 03:03:29;;;;;;;;;41.50;32.75;;;;;2.51;66.61;101754.72;5013512;28;45368;-68
2023/01/23 03:05:56;;;;;;;;;44.25;39.00;;;;;2.58;66.60;101762.16;5032350;28;45517;-69
2023/01/23 03:08:22;;;;;;;;;40.50;32.25;;;;;2.59;66.72;101757.94;5018652;28;45328;-69
2023/01/23 03:10:48;;;;;;;;;43.00;39.50;;;;;2.57;66.64;101757.81;5017678;28;46953;-69
2023/01/23 03:13:13;;;;;;;;;38.00;28.75;;;;;2.55;66.09;101754.19;5017621;28;46071;-68
2023/01/23 03:15:41;;;;;;;;;37.75;33.50;;;;;2.57;66.61;101757.81;5016301;28;45482;-69
2023/01/23 03:18:07;;;;;;;;;41.25;33.25;;;;;2.28;66.25;101709.00;5017177;28;45501;-69
2023/01/23 03:20:40;;;;;;;;;45.50;38.00;;;;;2.58;66.38;101759.59;5018388;28;45447;-69
2023/01/23 03:23:06;;;;;;;;;61.25;42.00;;;;;2.58;66.34;101762.16;5001700;28;46225;-68
2023/01/23 03:25:31;;;;;;;;;39.50;36.25;;;;;2.52;66.25;101774.56;5016885;28;45956;-68
2023/01/23 03:27:56;;;;;;;;;53.50;42.25;;;;;2.51;66.45;101780.53;5017466;28;45447;-69
2023/01/23 03:30:24;;;;;;;;;47.75;38.00;;;;;2.45;67.08;101779.09;5017925;28;45297;-69
2023/01/23 03:32:50;;;;;;;;;45.50;37.00;;;;;2.32;66.73;101759.16;5017131;28;45358;-69
2023/01/23 03:35:21;;;;;;;;;51.50;40.25;;;;;2.34;66.29;101773.97;5018007;28;45241;-69
2023/01/23 03:37:48;;;;;;;;;50.00;38.00;;;;;2.36;66.73;101772.41;5018119;28;45558;-70
2023/01/23 03:43:03;;;;;;;;;52.00;42.00;;;;;2.29;67.71;101771.75;5017765;28;45312;-70
2023/01/23 03:45:30;;;;;;;;;45.75;37.00;;;;;2.26;67.35;101774.13;5016072;28;45485;-69
2023/01/23 03:47:58;;;;;;;;;48.75;37.25;;;;;2.26;67.37;101761.22;5017760;28;45284;-68
2023/01/23 03:50:23;;;;;;;;;39.50;37.75;;;;;2.28;67.20;101757.09;5017139;28;45518;-68
2023/01/23 03:52:49;;;;;;;;;38.75;33.75;;;;;2.27;67.33;101765.59;5018154;28;45358;-69
2023/01/23 03:55:14;;;;;;;;;33.75;33.00;;;;;2.26;66.95;101758.63;5016921;28;45387;-69
2023/01/23 03:57:40;;;;;;;;;45.00;36.50;;;;;2.29;66.80;101756.28;5013650;28;45641;-69
2023/01/23 04:00:09;;;;;;;;;46.75;33.25;;;;;2.34;66.53;101755.00;5005067;28;45338;-69
2023/01/23 04:02:34;;;;;;;;;42.50;30.50;;;;;2.36;66.29;101759.50;5017355;28;46050;-68
2023/01/23 04:05:00;;;;;;;;;46.75;37.00;;;;;2.30;66.60;101771.00;5016134;28;45498;-70
2023/01/23 04:07:25;;;;;;;;;50.00;36.75;;;;;2.26;66.98;101774.13;5016623;28;45415;-69
2023/01/23 04:09:52;;;;;;;;;42.75;36.50;;;;;2.29;66.73;101771.75;5017094;28;45423;-70
2023/01/23 04:12:18;;;;;;;;;38.25;29.25;;;;;2.15;66.75;101735.47;5017379;28;45301;-69
2023/01/23 04:14:43;;;;;;;;;45.75;41.25;;;;;2.31;66.99;101765.09;5017323;28;45474;-70
2023/01/23 04:17:10;;;;;;;;;40.00;35.75;;;;;2.34;67.07;101763.63;5016757;28;45420;-70
2023/01/23 04:19:35;;;;;;;;;42.00;37.75;;;;;2.28;66.88;101751.94;5017227;28;45475;-70
2023/01/23 04:22:01;;;;;;;;;50.75;41.50;;;;;2.25;66.75;101750.00;5016618;28;45468;-70
2023/01/23 04:24:27;;;;;;;;;47.25;40.25;;;;;2.31;67.25;101765.09;5016781;28;45371;-70
2023/01/23 04:26:53;;;;;;;;;42.50;39.00;;;;;2.11;67.25;101740.22;5016569;28;45565;-69
2023/01/23 04:29:18;;;;;;;;;47.75;40.75;;;;;2.21;67.67;101770.22;5017333;28;45537;-69
2023/01/23 04:31:44;;;;;;;;;44.25;39.50;;;;;2.10;67.63;101747.06;5016286;28;45364;-70
2023/01/23 04:34:10;;;;;;;;;43.75;36.00;;;;;2.14;67.56;101751.69;5016985;28;45437;-70
2023/01/23 04:36:35;;;;;;;;;55.50;44.50;;;;;2.26;67.83;101766.38;5016121;28;45537;-70
2023/01/23 04:39:02;;;;;;;;;44.50;39.75;;;;;2.27;67.55;101771.66;5017020;28;45300;-70
2023/01/23 04:41:30;;;;;;;;;45.75;41.00;;;;;2.22;67.49;101769.47;5016763;28;45566;-70
2023/01/23 04:43:56;;;;;;;;;52.75;41.75;;;;;2.18;67.75;101764.06;5016826;28;45498;-70
2023/01/23 04:46:22;;;;;;;;;38.50;35.50;;;;;2.10;67.21;101752.22;5016451;28;45470;-70
2023/01/23 04:48:49;;;;;;;;;44.25;38.75;;;;;2.08;68.33;101771.78;5016104;28;45340;-70
2023/01/23 04:51:15;;;;;;;;;48.50;41.00;;;;;1.73;68.53;101718.22;5015152;28;47061;-70
2023/01/23 04:53:40;;;;;;;;;42.25;33.50;;;;;1.90;68.76;101754.81;5016626;28;45305;-69
2023/01/23 04:56:06;;;;;;;;;45.25;41.00;;;;;1.89;68.67;101761.63;5014973;28;45704;-69
2023/01/23 04:58:36;;;;;;;;;45.25;37.25;;;;;1.85;68.84;101767.31;5015805;28;45424;-70
2023/01/23 05:01:06;;;;;;;;;45.00;36.00;;;;;1.88;68.01;101759.81;5016727;28;46089;-69
2023/01/23 05:03:33;;;;;;;;;43.50;34.00;;;;;1.84;68.74;101762.03;5016400;28;45460;-69
2023/01/23 05:05:59;;;;;;;;;52.50;43.50;;;;;1.71;69.00;101727.50;5014142;28;45210;-68
2023/01/23 05:08:24;;;;;;;;;44.00;37.75;;;;;1.76;68.71;101731.34;5016843;28;45384;-69
2023/01/23 05:10:50;;;;;;;;;42.00;38.00;;;;;1.97;68.45;101770.91;5015181;28;46197;-68
2023/01/23 05:13:18;;;;;;;;;45.50;41.25;;;;;1.93;67.78;101775.66;5014705;28;45463;-69
2023/01/23 05:15:44;;;;;;;;;36.25;33.25;;;;;1.84;68.31;101772.31;4995567;28;45439;-69
2023/01/23 05:18:09;;;;;;;;;46.50;36.00;;;;;1.75;69.30;101778.50;5006787;28;45489;-70
2023/01/23 05:20:35;;;;;;;;;42.00;38.75;;;;;1.74;69.16;101770.63;5014737;28;46270;-70
2023/01/23 05:23:00;;;;;;;;;38.75;35.00;;;;;1.77;68.57;101776.97;5013647;28;45486;-69
2023/01/23 05:25:27;;;;;;;;;47.75;41.75;;;;;1.73;68.55;101776.53;5016856;28;45495;-69
2023/01/23 05:27:53;;;;;;;;;44.25;41.00;;;;;1.54;68.83;101744.09;5016426;28;45569;-69
2023/01/23 05:30:21;;;;;;;;;44.75;39.25;;;;;1.66;70.34;101763.94;5016303;28;45495;-69
2023/01/23 05:32:48;;;;;;;;;46.75;42.00;;;;;1.55;69.92;101739.81;5016035;28;45297;-69
2023/01/23 05:35:21;;;;;;;;;46.50;38.25;;;;;1.66;69.40;101731.34;5001417;28;45420;-69
2023/01/23 05:37:49;;;;;;;;;50.25;38.75;;;;;1.87;69.34;101762.25;5016827;28;45503;-69
2023/01/23 05:40:15;;;;;;;;;33.50;32.25;;;;;1.93;69.44;101760.19;5003571;28;45360;-69
2023/01/23 05:42:40;;;;;;;;;42.75;40.50;;;;;1.93;68.99;101748.25;5005584;28;45423;-68
2023/01/23 05:45:06;;;;;;;;;46.25;36.25;;;;;2.01;68.72;101751.47;5016296;28;45515;-69
2023/01/23 05:47:31;;;;;;;;;47.00;34.25;;;;;1.92;68.56;101730.06;5009971;28;45569;-68
2023/01/23 05:49:57;;;;;;;;;40.75;37.75;;;;;2.07;68.70;101757.13;5016066;28;45449;-69
2023/01/23 05:52:23;;;;;;;;;43.75;35.25;;;;;2.11;68.21;101758.25;5015479;28;45478;-68
2023/01/23 05:54:49;;;;;;;;;38.25;35.75;;;;;2.14;68.39;101755.94;5016287;28;45530;-69
2023/01/23 05:57:15;;;;;;;;;41.75;35.50;;;;;2.13;68.01;101749.91;5015473;28;45552;-69
2023/01/23 05:59:40;;;;;;;;;52.75;42.00;;;;;2.16;68.40;101751.81;5015765;28;45527;-69
2023/01/23 06:02:06;;;;;;;;;46.50;38.25;;;;;2.17;68.22;101751.94;5015671;28;45177;-69
2023/01/23 06:04:33;;;;;;;;;41.00;38.75;;;;;2.17;68.36;101746.78;5014729;28;45285;-69
2023/01/23 06:06:59;;;;;;;;;42.25;36.75;;;;;2.25;67.67;101760.31;5015812;28;45725;-69
2023/01/23 06:09:25;;;;;;;;;41.00;34.00;;;;;2.14;68.17;101733.63;5015540;28;46159;-69
2023/01/23 06:11:50;;;;;;;;;58.75;42.75;;;;;2.29;68.13;101766.59;5015344;28;45658;-69
2023/01/23 06:14:16;;;;;;;;;47.50;41.00;;;;;2.24;68.05;101742.13;5014132;28;45374;-68
2023/01/23 06:16:41;;;;;;;;;40.25;36.00;;;;;2.34;67.61;101758.47;5015478;28;45458;-69
2023/01/23 06:19:07;;;;;;;;;42.00;38.25;;;;;2.36;67.64;101750.88;5017812;28;46347;-70
2023/01/23 06:21:32;;;;;;;;;45.25;37.00;;;;;2.35;67.70;101754.25;5019057;28;45387;-69
2023/01/23 06:23:59;;;;;;;;;41.25;37.50;;;;;2.38;68.12;101749.34;5018780;28;45234;-69
2023/01/23 06:26:27;;;;;;;;;43.50;38.75;;;;;2.39;67.61;101746.00;5019205;28;45515;-69
2023/01/23 06:28:52;;;;;;;;;47.50;39.25;;;;;2.41;67.99;101744.44;5018121;28;45586;-69
2023/01/23 06:31:20;;;;;;;;;41.25;36.00;;;;;2.41;67.86;101744.44;5018685;28;45338;-69
2023/01/23 06:33:52;;;;;;;;;42.50;38.50;;;;;2.34;67.46;101729.22;5018360;28;45261;-68
2023/01/23 06:36:18;;;;;;;;;47.00;40.00;;;;;2.45;67.22;101738.75;5019072;28;45383;-69
2023/01/23 06:38:43;;;;;;;;;45.00;38.00;;;;;2.44;67.36;101742.09;5018537;28;46125;-69
2023/01/23 06:41:09;;;;;;;;;36.00;34.25;;;;;2.25;67.34;101716.50;5018388;28;45467;-69
2023/01/23 06:43:34;;;;;;;;;22.25;19.00;;;;;2.43;67.44;101741.97;5018058;28;45476;-69
2023/01/23 06:46:00;;;;;;;;;60.00;46.75;;;;;2.46;67.12;101743.13;5018971;28;45525;-69
2023/01/23 06:48:25;;;;;;;;;43.25;41.25;;;;;2.48;67.16;101736.41;5018366;28;46165;-69
2023/01/23 06:50:51;;;;;;;;;41.75;37.25;;;;;2.48;66.92;101738.97;5018152;28;45259;-70
2023/01/23 06:53:17;;;;;;;;;33.50;30.50;;;;;2.50;67.35;101723.63;5017699;28;45404;-69
2023/01/23 06:55:43;;;;;;;;;50.00;38.25;;;;;2.32;66.90;101693.00;5018207;28;45502;-69
2023/01/23 06:58:09;;;;;;;;;46.25;38.25;;;;;2.50;67.03;101737.44;5017854;28;45429;-68
2023/01/23 07:00:34;;;;;;;;;66.25;51.75;;;;;2.31;67.27;101691.22;5017836;28;45466;-68
2023/01/23 07:03:02;;;;;;;;;53.50;42.75;;;;;2.53;67.47;101729.97;5016397;28;45376;-68
2023/01/23 07:05:28;;;;;;;;;76.00;59.50;;;;;2.29;67.66;101676.38;5005522;28;45597;-68
2023/01/23 07:07:54;;;;;;;;;58.25;44.50;;;;;2.49;68.02;101722.75;5016529;28;46108;-68
2023/01/23 07:10:21;;;;;;;;;56.00;45.00;;;;;2.49;67.93;101737.34;5014929;28;45293;-69
2023/01/23 07:12:47;;;;;;;;;45.25;41.25;;;;;1.39;67.76;101537.72;5017250;28;45517;-69
2023/01/23 07:15:13;;;;;;;;;43.75;39.00;;;;;2.55;67.89;101735.25;5017366;28;45604;-68
2023/01/23 07:17:38;;;;;;;;;37.75;30.75;;;;;2.58;67.63;101725.16;5017112;28;45526;-68
2023/01/23 07:20:04;;;;;;;;;35.00;26.75;;;;;2.61;67.66;101717.69;5017655;28;45437;-70
2023/01/23 07:22:30;;;;;;;;;52.75;42.00;;;;;2.29;67.50;101661.81;5016862;28;45560;-68
2023/01/23 07:24:55;;;;;;;;;48.75;36.75;;;;;2.62;68.08;101718.56;5017201;28;45931;-68
2023/01/23 07:27:21;;;;;;;;;41.25;36.25;;;;;2.62;67.49;101716.00;5016241;28;46144;-69
2023/01/23 07:29:47;;;;;;;;;47.25;37.25;;;;;2.64;67.35;101723.06;5015483;28;45489;-69
2023/01/23 07:32:12;;;;;;;;;51.75;39.75;;;;;2.65;67.41;101719.72;5016659;28;45442;-69
2023/01/23 07:34:38;;;;;;;;;38.00;33.50;;;;;2.69;67.65;101720.88;5017542;28;45427;-68
2023/01/23 07:37:03;;;;;;;;;39.75;35.25;;;;;2.44;67.48;101674.16;5015907;28;45574;-70
2023/01/23 07:39:31;;;;;;;;;35.50;34.25;;;;;2.72;67.33;101731.44;5017271;28;45600;-69
2023/01/23 07:41:57;;;;;;;;;50.75;43.00;;;;;2.74;67.44;101722.13;5017033;28;45405;-69
2023/01/23 07:44:22;;;;;;;;;46.50;38.75;;;;;2.75;67.53;101724.84;5017343;28;45442;-68
2023/01/23 07:46:48;;;;;;;;;43.00;38.75;;;;;2.63;67.54;101700.66;5016474;28;45339;-68
2023/01/23 07:49:14;;;;;;;;;49.50;41.00;;;;;2.77;67.96;101715.53;5017147;28;45446;-68
2023/01/23 07:51:40;;;;;;;;;40.50;33.75;;;;;2.55;67.45;101681.97;5017450;28;45564;-68
2023/01/23 07:54:06;;;;;;;;;43.25;37.00;;;;;2.74;67.46;101716.97;5017571;28;45488;-69
2023/01/23 07:56:31;;;;;;;;;46.25;35.00;;;;;2.74;67.77;101728.19;5017021;28;46189;-69
2023/01/23 07:58:58;;;;;;;;;40.00;38.00;;;;;2.75;67.85;101731.69;5017321;28;45474;-69
2023/01/23 08:01:23;;;;;;;;;40.50;36.25;;;;;2.72;67.46;101737.47;5017617;28;45414;-70
2023/01/23 08:03:51;;;;;;;;;49.50;39.25;;;;;2.51;67.24;101713.44;5017781;28;45426;-70
2023/01/23 08:06:17;;;;;;;;;50.75;40.00;;;;;2.28;67.63;101696.09;5015826;28;45390;-70
2023/01/23 08:08:42;;;;;;;;;45.75;40.00;;;;;2.50;68.16;101740.00;5017121;28;45500;-70
2023/01/23 08:11:11;;;;;;;;;44.75;34.75;;;;;2.18;68.56;101694.44;5017135;28;45231;-70
2023/01/23 08:13:38;;;;;;;;;54.25;37.50;;;;;2.46;68.15;101737.06;5017522;28;45538;-70
2023/01/23 08:16:04;;;;;;;;;48.00;41.50;;;;;2.36;68.27;101720.81;5017150;28;45581;-70
2023/01/23 08:18:30;;;;;;;;;44.50;40.50;;;;;2.49;69.06;101738.22;5017438;28;45518;-70
2023/01/23 08:20:58;;;;;;;;;47.00;39.00;;;;;2.52;68.66;101743.63;5016128;28;45534;-69
2023/01/23 08:23:29;;;;;;;;;49.25;40.25;;;;;2.48;68.19;101730.34;5016484;28;45538;-68
2023/01/23 08:25:56;;;;;;;;;57.25;48.00;;;;;2.57;67.55;101731.13;5015617;28;46143;-69
2023/01/23 08:28:23;;;;;;;;;45.25;33.75;;;;;2.61;67.45;101734.81;5016489;28;45470;-69
2023/01/23 08:30:49;;;;;;;;;48.75;43.50;;;;;2.61;67.28;101745.13;5016340;28;45533;-68
2023/01/23 08:33:15;;;;;;;;;52.75;43.25;;;;;2.49;67.60;101721.84;5016130;28;45510;-69
2023/01/23 08:35:51;;;;;;;;;55.75;45.75;;;;;2.58;67.75;101727.75;5013491;28;46342;-69
2023/01/23 08:38:20;;;;;;;;;51.00;44.00;;;;;2.47;67.52;101706.25;5015952;28;45491;-69
2023/01/23 08:40:49;;;;;;;;;50.00;41.25;;;;;2.71;67.68;101739.97;5015438;28;45493;-69
2023/01/23 08:43:18;;;;;;;;;48.75;38.75;;;;;2.78;67.73;101737.09;5013606;28;45619;-69
2023/01/23 08:45:52;;;;;;;;;46.75;41.25;;;;;2.85;67.43;101734.22;5015877;28;46567;-68
2023/01/23 08:48:19;;;;;;;;;42.25;36.50;;;;;2.90;67.24;101732.91;5012442;28;45502;-69
2023/01/23 08:50:45;;;;;;;;;48.75;40.50;;;;;2.95;66.72;101739.34;5015428;28;45409;-69
2023/01/23 08:53:11;;;;;;;;;58.75;44.25;;;;;3.01;66.97;101741.50;5015456;28;45489;-69
2023/01/23 08:55:38;;;;;;;;;61.00;48.75;;;;;3.05;66.30;101737.50;5015608;28;46029;-69
2023/01/23 08:58:07;;;;;;;;;52.00;42.75;;;;;3.04;66.31;101741.72;5015946;28;45517;-68
2023/01/23 09:00:35;;;;;;;;;56.75;45.75;;;;;3.07;66.09;101741.09;5016218;28;45428;-69
2023/01/23 09:03:02;;;;;;;;;49.00;40.50;;;;;3.05;66.02;101748.72;5014819;28;45436;-68
2023/01/23 09:05:29;;;;;;;;;47.75;40.75;;;;;3.11;66.12;101744.03;5015832;28;45426;-69
2023/01/23 09:07:55;;;;;;;;;42.50;35.25;;;;;3.17;66.01;101739.34;5012918;28;45321;-69
2023/01/23 09:10:22;;;;;;;;;47.50;38.00;;;;;3.23;65.66;101743.22;5015458;28;47096;-69
2023/01/23 09:12:50;;;;;;;;;45.00;42.25;;;;;3.25;65.45;101742.53;5016088;28;45392;-70
2023/01/23 09:15:16;;;;;;;;;47.50;37.75;;;;;3.13;66.22;101719.25;5012651;28;46330;-68
2023/01/23 09:17:42;;;;;;;;;45.50;39.75;;;;;3.32;65.91;101749.06;5015467;28;45482;-68
2023/01/23 09:20:08;;;;;;;;;50.00;40.50;;;;;3.36;65.49;101740.78;5015734;28;45550;-67
2023/01/23 09:22:34;;;;;;;;;45.25;38.25;;;;;3.38;65.44;101739.22;5016198;28;45730;-67
2023/01/23 09:24:59;;;;;;;;;43.50;37.00;;;;;3.41;65.40;101742.06;5015021;28;46082;-69
2023/01/23 09:27:25;;;;;;;;;41.75;32.75;;;;;3.41;65.16;101738.59;5014626;28;45452;-69
2023/01/23 09:29:50;;;;;;;;;44.50;36.25;;;;;3.27;64.79;101707.41;5014520;28;45539;-69
2023/01/23 09:32:16;;;;;;;;;41.50;34.50;;;;;3.51;64.38;101741.97;5008906;28;45536;-69
2023/01/23 09:34:42;;;;;;;;;42.75;36.75;;;;;3.55;64.55;101736.28;5004895;28;45504;-69
2023/01/23 09:37:08;;;;;;;;;41.25;37.75;;;;;3.46;64.67;101720.09;5015810;28;45348;-69
2023/01/23 09:39:33;;;;;;;;;42.75;36.25;;;;;3.63;64.56;101735.97;5015340;28;45599;-68
2023/01/23 09:42:06;;;;;;;;;43.00;28.50;;;;;3.52;64.35;101717.03;5014521;28;45463;-69
2023/01/23 09:44:35;;;;;;;;;49.00;39.25;;;;;3.65;63.74;101737.00;5014156;28;45610;-70
2023/01/23 09:47:14;;;;;;;;;51.00;42.50;;;;;3.66;64.10;101736.19;5015354;28;45594;-70
2023/01/23 09:50:01;;;;;;;;;48.75;40.50;;;;;3.66;64.57;101731.94;5015661;28;45466;-69
2023/01/23 09:52:33;;;;;;;;;40.50;35.50;;;;;3.68;63.80;101745.88;5016705;28;45588;-69
2023/01/23 09:55:16;;;;;;;;;49.00;37.75;;;;;3.67;64.18;101741.47;5019372;28;45569;-69
2023/01/23 09:57:53;;;;;;;;;48.25;35.50;;;;;3.68;64.08;101742.38;5004863;28;45431;-69
2023/01/23 10:00:26;;;;;;;;;47.50;37.75;;;;;3.69;63.83;101739.91;5021497;28;45506;-70
2023/01/23 10:02:53;;;;;;;;;49.50;38.75;;;;;3.74;64.31;101735.09;5021221;28;45432;-68
2023/01/23 10:05:31;;;;;;;;;48.75;40.50;;;;;3.55;64.05;101699.22;5003473;28;46336;-68
2023/01/23 10:07:57;;;;;;;;;46.75;36.00;;;;;3.71;63.83;101742.63;5034004;28;45342;-69
2023/01/23 10:10:31;;;;;;;;;42.50;36.25;;;;;3.68;63.99;101735.56;5019210;28;45438;-69
2023/01/23 10:13:12;;;;;;;;;45.00;39.00;;;;;3.74;64.06;101738.59;5018568;28;45564;-69
2023/01/23 10:15:53;;;;;;;;;37.25;33.25;;;;;3.58;64.11;101707.16;5018927;28;46278;-69
2023/01/23 10:18:42;;;;;;;;;43.00;38.00;;;;;3.71;64.32;101725.44;5018793;28;45435;-69
2023/01/23 10:21:30;;;;;;;;;49.25;40.50;;;;;3.89;64.18;101750.88;5019001;28;45324;-69
2023/01/23 10:24:19;;;;;;;;;39.75;35.00;;;;;3.91;63.93;101750.22;5018993;28;45266;-69
2023/01/23 10:26:46;;;;;;;;;49.50;40.75;;;;;3.93;64.10;101743.47;5018329;28;45440;-68
2023/01/23 10:29:33;;;;;;;;;43.75;37.25;;;;;3.95;63.28;101748.75;5018452;28;45853;-69
2023/01/23 10:32:03;;;;;;;;;43.00;35.25;;;;;3.78;63.90;101701.88;5018158;28;45404;-70
2023/01/23 10:35:11;;;;;;;;;34.50;30.25;;;;;4.06;62.83;101728.88;5018316;28;45577;-68
2023/01/23 10:37:46;;;;;;;;;37.00;26.00;;;;;3.96;61.87;101689.41;5018095;28;45502;-69
2023/01/23 10:43:19;;;;;;;;;38.50;33.75;;;;;4.03;62.33;101688.19;5017738;28;45478;-69
2023/01/23 10:45:47;;;;;;;;;34.75;32.00;;;;;4.24;62.10;101709.56;5018512;28;45438;-69
2023/01/23 10:48:31;;;;;;;;;46.75;36.75;;;;;4.27;62.32;101695.97;5002922;28;45452;-69
2023/01/23 10:50:57;;;;;;;;;37.50;33.75;;;;;4.29;62.01;101684.03;5018316;28;45438;-69
2023/01/23 10:53:24;;;;;;;;;37.00;33.50;;;;;4.19;62.30;101657.50;5018539;28;45399;-69
2023/01/23 10:55:51;;;;;;;;;40.00;33.25;;;;;4.40;62.22;101680.56;5017799;28;45469;-69
2023/01/23 10:58:36;;;;;;;;;42.00;34.50;;;;;4.42;61.52;101684.16;5016703;28;46221;-69
2023/01/23 11:01:03;;;;;;;;;52.00;38.50;;;;;4.49;61.42;101676.03;5005317;28;45459;-69
2023/01/23 11:03:31;;;;;;;;;40.50;35.50;;;;;4.49;60.93;101667.38;5018097;28;45594;-69
2023/01/23 11:06:15;;;;;;;;;41.50;32.00;;;;;4.37;61.58;101657.94;5018576;28;45403;-69
2023/01/23 11:08:51;;;;;;;;;58.25;46.25;;;;;4.46;60.96;101670.66;5016386;28;45645;-69
2023/01/23 11:11:21;;;;;;;;;43.25;38.00;;;;;4.38;62.26;101653.69;5017753;28;45603;-70
2023/01/23 11:13:49;;;;;;;;;58.25;43.25;;;;;4.39;61.96;101665.81;5018138;28;45308;-69
2023/01/23 11:16:21;;;;;;;;;41.25;32.50;;;;;4.43;62.04;101667.81;5018747;28;45288;-69
2023/01/23 11:19:04;;;;;;;;;38.25;34.50;;;;;4.44;61.51;101669.66;5017974;28;46093;-69
2023/01/23 11:21:34;;;;;;;;;39.75;37.25;;;;;4.38;61.93;101657.16;5003966;28;45462;-69
2023/01/23 11:24:27;;;;;;;;;44.00;33.25;;;;;4.35;61.42;101641.41;5018268;28;45467;-69
2023/01/23 11:27:01;;;;;;;;;48.50;37.25;;;;;4.49;61.43;101654.44;5017022;28;45482;-69
2023/01/23 11:29:29;;;;;;;;;33.25;23.25;;;;;4.53;60.60;101652.19;5017981;28;45495;-69
2023/01/23 11:32:04;;;;;;;;;37.50;33.25;;;;;4.58;61.10;101648.25;5017853;28;45189;-69